Time;durP1;ratioP1;P1;durP2;ratioP2;P2;SDS_P1;SDS_P2;PMS_P1;PMS_P2;Temp;Humidity;BMP_temperature;BMP_pressure;BME280_temperature;BME280_humidity;BME280_pressure;Samples;Min_cycle;Max_cycle;Signal;HPM_P1;HPM_P2
2023/05/10 00:00:27;;;;;;;10.77;5.25;;;;;;;;;;4940405;29;20082;-91
2023/05/10 00:02:53;;;;;;;8.70;5.35;;;;;;;;;;4940777;29;20113;-93
2023/05/10 00:05:19;;;;;;;10.82;6.28;;;;;;;;;;4940560;29;20122;-92
2023/05/10 00:07:45;;;;;;;10.43;6.20;;;;;;;;;;4943407;29;20027;-91
2023/05/10 00:10:12;;;;;;;9.15;5.30;;;;;;;;;;4939223;29;20069;-92
2023/05/10 00:12:38;;;;;;;10.07;5.75;;;;;;;;;;4940531;29;20074;-91
2023/05/10 00:15:05;;;;;;;9.18;6.30;;;;;;;;;;4940472;29;20035;-92
2023/05/10 00:17:31;;;;;;;7.72;5.35;;;;;;;;;;4940410;29;20104;-90
2023/05/10 00:19:57;;;;;;;9.85;5.30;;;;;;;;;;4940146;29;20464;-92
2023/05/10 00:22:23;;;;;;;15.75;5.95;;;;;;;;;;4939644;29;20039;-92
2023/05/10 00:24:49;;;;;;;11.00;6.07;;;;;;;;;;4940057;29;20035;-92
2023/05/10 00:27:15;;;;;;;10.25;6.15;;;;;;;;;;4940318;29;20393;-92
2023/05/10 00:29:41;;;;;;;10.45;6.18;;;;;;;;;;4939710;29;20027;-91
2023/05/10 00:32:08;;;;;;;12.15;6.97;;;;;;;;;;4939640;29;20118;-93
2023/05/10 00:34:34;;;;;;;10.95;6.70;;;;;;;;;;4940099;29;20506;-92
2023/05/10 00:37:00;;;;;;;15.18;7.47;;;;;;;;;;4940264;29;20054;-90
2023/05/10 00:39:28;;;;;;;12.40;7.05;;;;;;;;;;4939569;29;20098;-92
2023/05/10 00:41:54;;;;;;;12.20;7.00;;;;;;;;;;4939532;29;20027;-93
2023/05/10 00:44:20;;;;;;;12.85;6.50;;;;;;;;;;4939838;29;20512;-92
2023/05/10 00:46:47;;;;;;;10.93;6.97;;;;;;;;;;4939901;29;20172;-93
2023/05/10 00:49:13;;;;;;;11.45;7.38;;;;;;;;;;4920300;29;20032;-91
2023/05/10 00:51:39;;;;;;;13.52;7.82;;;;;;;;;;4920753;29;20368;-93
2023/05/10 00:54:06;;;;;;;10.60;6.60;;;;;;;;;;4930474;29;20039;-92
2023/05/10 00:56:32;;;;;;;10.95;6.78;;;;;;;;;;4939905;29;20031;-92
2023/05/10 00:58:58;;;;;;;9.93;6.93;;;;;;;;;;4939522;29;20377;-91
2023/05/10 01:01:25;;;;;;;11.43;6.85;;;;;;;;;;4920615;29;20026;-93
2023/05/10 01:03:52;;;;;;;10.25;6.70;;;;;;;;;;4934801;29;20043;-92
2023/05/10 01:06:18;;;;;;;12.05;7.75;;;;;;;;;;4939206;29;20050;-93
2023/05/10 01:08:44;;;;;;;11.75;7.38;;;;;;;;;;4939388;29;20027;-92
2023/05/10 01:11:10;;;;;;;12.95;6.20;;;;;;;;;;4939624;29;20465;-92
2023/05/10 01:13:37;;;;;;;11.02;7.07;;;;;;;;;;4942680;29;20129;-91
2023/05/10 01:16:06;;;;;;;13.07;6.40;;;;;;;;;;4933334;29;20389;-91
2023/05/10 01:18:33;;;;;;;10.10;7.15;;;;;;;;;;4920244;29;20032;-93
2023/05/10 01:21:05;;;;;;;12.27;6.82;;;;;;;;;;4920305;29;20198;-92
2023/05/10 01:23:42;;;;;;;12.20;7.13;;;;;;;;;;4921938;29;20020;-92
2023/05/10 01:26:23;;;;;;;10.70;6.97;;;;;;;;;;4921459;29;20493;-91
2023/05/10 01:28:59;;;;;;;10.55;6.93;;;;;;;;;;4925181;29;20028;-93
2023/05/10 01:31:41;;;;;;;10.45;6.28;;;;;;;;;;4942958;29;20473;-90
2023/05/10 01:34:09;;;;;;;9.18;5.60;;;;;;;;;;4943236;29;20023;-92
2023/05/10 01:36:44;;;;;;;9.52;5.93;;;;;;;;;;4942904;29;20476;-91
2023/05/10 01:39:17;;;;;;;10.55;5.85;;;;;;;;;;4942915;29;20142;-92
2023/05/10 01:42:06;;;;;;;10.50;6.55;;;;;;;;;;4943067;29;20070;-92
2023/05/10 01:44:46;;;;;;;13.15;5.93;;;;;;;;;;4935386;29;20055;-93
2023/05/10 01:47:47;;;;;;;9.45;6.13;;;;;;;;;;4943325;29;20074;-92
2023/05/10 01:50:19;;;;;;;10.23;6.00;;;;;;;;;;4933099;29;20051;-92
2023/05/10 01:52:50;;;;;;;8.68;5.45;;;;;;;;;;4942789;29;20191;-91
2023/05/10 01:55:18;;;;;;;9.68;6.13;;;;;;;;;;4939893;29;20035;-91
2023/05/10 01:57:46;;;;;;;10.10;6.32;;;;;;;;;;4946080;29;20031;-92
2023/05/10 02:00:14;;;;;;;11.35;5.63;;;;;;;;;;4942845;29;20126;-91
2023/05/10 02:02:42;;;;;;;8.65;5.55;;;;;;;;;;4942890;29;20039;-93
2023/05/10 02:05:08;;;;;;;10.63;6.57;;;;;;;;;;4942595;29;20033;-92
2023/05/10 02:07:36;;;;;;;9.98;5.93;;;;;;;;;;4942924;29;20031;-91
2023/05/10 02:10:03;;;;;;;9.75;6.50;;;;;;;;;;4942575;29;20061;-92
2023/05/10 02:12:29;;;;;;;10.93;6.72;;;;;;;;;;4943273;29;20078;-93
2023/05/10 02:14:56;;;;;;;9.57;6.40;;;;;;;;;;4942132;29;20469;-91
2023/05/10 02:17:23;;;;;;;11.02;6.68;;;;;;;;;;4942826;29;20469;-92
2023/05/10 02:19:50;;;;;;;12.00;6.47;;;;;;;;;;4942558;29;20039;-94
2023/05/10 02:22:16;;;;;;;12.13;6.22;;;;;;;;;;4936088;29;20139;-93
2023/05/10 02:24:44;;;;;;;11.32;6.60;;;;;;;;;;4938662;29;20083;-93
2023/05/10 02:27:10;;;;;;;11.65;7.20;;;;;;;;;;4939070;29;20028;-92
2023/05/10 02:29:37;;;;;;;11.02;6.93;;;;;;;;;;4938969;29;20027;-92
2023/05/10 02:32:04;;;;;;;12.38;6.47;;;;;;;;;;4938693;29;20023;-90
2023/05/10 02:34:30;;;;;;;10.07;6.35;;;;;;;;;;4939023;29;20036;-92
2023/05/10 02:36:57;;;;;;;11.90;6.75;;;;;;;;;;4938654;29;20034;-92
2023/05/10 02:39:23;;;;;;;12.05;6.55;;;;;;;;;;4938772;29;20043;-93
2023/05/10 02:41:49;;;;;;;10.57;6.53;;;;;;;;;;4938536;29;20032;-92
2023/05/10 02:44:18;;;;;;;9.13;6.47;;;;;;;;;;4938670;29;20385;-91
2023/05/10 02:46:44;;;;;;;11.20;6.38;;;;;;;;;;4949641;29;20035;-91
2023/05/10 02:49:10;;;;;;;9.93;6.13;;;;;;;;;;4926531;29;20472;-93
2023/05/10 02:51:38;;;;;;;12.45;6.93;;;;;;;;;;4958206;29;20027;-92
2023/05/10 02:54:19;;;;;;;10.50;6.68;;;;;;;;;;4955857;29;20031;-93
2023/05/10 02:56:51;;;;;;;10.05;6.25;;;;;;;;;;4938729;29;20024;-92
2023/05/10 02:59:18;;;;;;;11.55;6.32;;;;;;;;;;4938288;29;20040;-93
2023/05/10 03:01:44;;;;;;;11.65;6.13;;;;;;;;;;4938386;29;20034;-91
2023/05/10 03:04:10;;;;;;;10.48;6.65;;;;;;;;;;4938443;29;20055;-92
2023/05/10 03:06:36;;;;;;;11.27;5.75;;;;;;;;;;4938171;29;20024;-92
2023/05/10 03:09:03;;;;;;;10.07;6.35;;;;;;;;;;4938582;29;20060;-92
2023/05/10 03:11:45;;;;;;;9.57;5.93;;;;;;;;;;4938136;29;20055;-90
2023/05/10 03:14:39;;;;;;;9.48;5.93;;;;;;;;;;4938860;29;20406;-91
2023/05/10 03:17:31;;;;;;;9.25;6.30;;;;;;;;;;4917932;29;20044;-92
2023/05/10 03:19:59;;;;;;;11.32;6.30;;;;;;;;;;4890893;29;20180;-92
2023/05/10 03:22:45;;;;;;;10.10;6.63;;;;;;;;;;4908268;29;20481;-92
2023/05/10 03:25:12;;;;;;;11.57;7.10;;;;;;;;;;4903078;29;20437;-92
2023/05/10 03:27:40;;;;;;;9.60;6.50;;;;;;;;;;4903523;29;20028;-93
2023/05/10 03:30:08;;;;;;;12.50;5.97;;;;;;;;;;4903311;29;20118;-91
2023/05/10 03:32:35;;;;;;;10.23;6.43;;;;;;;;;;4903673;29;20119;-92
2023/05/10 03:35:01;;;;;;;11.52;6.45;;;;;;;;;;4903411;29;20123;-92
2023/05/10 03:37:27;;;;;;;11.25;6.47;;;;;;;;;;4902858;29;20070;-92
2023/05/10 03:39:53;;;;;;;11.88;6.57;;;;;;;;;;4902569;29;20036;-92
2023/05/10 03:42:19;;;;;;;13.82;7.15;;;;;;;;;;4936109;29;20023;-92
2023/05/10 03:44:46;;;;;;;10.75;6.70;;;;;;;;;;4940557;29;20090;-90
2023/05/10 03:47:12;;;;;;;11.93;7.28;;;;;;;;;;4921796;29;20024;-92
2023/05/10 03:49:38;;;;;;;12.18;6.03;;;;;;;;;;4921697;29;20043;-93
2023/05/10 03:52:05;;;;;;;11.75;6.38;;;;;;;;;;4922657;29;20063;-90
2023/05/10 03:54:32;;;;;;;9.90;6.38;;;;;;;;;;4931935;29;20028;-93
2023/05/10 03:56:58;;;;;;;12.23;7.38;;;;;;;;;;4924611;29;20127;-92
2023/05/10 03:59:24;;;;;;;11.02;6.50;;;;;;;;;;4921734;29;20122;-93
2023/05/10 04:01:50;;;;;;;9.88;6.28;;;;;;;;;;4921513;29;20118;-92
2023/05/10 04:04:18;;;;;;;11.63;6.32;;;;;;;;;;4931400;29;20055;-92
2023/05/10 04:06:45;;;;;;;10.73;6.70;;;;;;;;;;4940170;29;20469;-91
2023/05/10 04:09:11;;;;;;;9.38;6.38;;;;;;;;;;4925615;29;20040;-91
2023/05/10 04:11:37;;;;;;;9.48;5.85;;;;;;;;;;4941346;29;20027;-90
2023/05/10 04:14:03;;;;;;;13.32;6.80;;;;;;;;;;4940568;29;20481;-92
2023/05/10 04:16:29;;;;;;;9.73;6.28;;;;;;;;;;4940673;29;20027;-91
2023/05/10 04:18:56;;;;;;;9.10;6.05;;;;;;;;;;4941936;29;20042;-90
2023/05/10 04:21:26;;;;;;;9.88;6.03;;;;;;;;;;4935681;29;20055;-92
2023/05/10 04:23:52;;;;;;;14.48;6.35;;;;;;;;;;4920830;29;20028;-92
2023/05/10 04:26:18;;;;;;;11.93;5.97;;;;;;;;;;4920870;29;20392;-92
2023/05/10 04:28:44;;;;;;;11.00;5.63;;;;;;;;;;4920841;29;20083;-92
2023/05/10 04:31:11;;;;;;;10.25;5.30;;;;;;;;;;4921178;29;20063;-93
2023/05/10 04:33:37;;;;;;;13.73;5.22;;;;;;;;;;4920623;29;20039;-91
2023/05/10 04:36:04;;;;;;;8.75;4.72;;;;;;;;;;4921257;29;20027;-92
2023/05/10 04:38:30;;;;;;;23.13;5.00;;;;;;;;;;4920772;29;20039;-93
2023/05/10 04:41:05;;;;;;;9.05;4.28;;;;;;;;;;4928642;29;20477;-91
2023/05/10 04:43:31;;;;;;;12.75;4.80;;;;;;;;;;4920936;29;20051;-92
2023/05/10 04:45:57;;;;;;;7.95;4.40;;;;;;;;;;4920418;29;20039;-92
2023/05/10 04:48:23;;;;;;;7.95;4.70;;;;;;;;;;4920591;29;20027;-91
2023/05/10 04:50:49;;;;;;;7.80;4.10;;;;;;;;;;4920453;29;20035;-92
2023/05/10 04:53:15;;;;;;;7.30;4.50;;;;;;;;;;4931802;29;20034;-94
2023/05/10 04:55:42;;;;;;;6.90;3.80;;;;;;;;;;4925217;29;20028;-90
2023/05/10 04:58:08;;;;;;;7.20;4.28;;;;;;;;;;4920266;29;20023;-91
2023/05/10 05:00:35;;;;;;;9.90;4.63;;;;;;;;;;4920497;29;20429;-92
2023/05/10 05:03:01;;;;;;;8.23;4.85;;;;;;;;;;4919461;29;20541;-91
2023/05/10 05:05:27;;;;;;;9.98;5.07;;;;;;;;;;4920091;29;20039;-93
2023/05/10 05:07:53;;;;;;;7.03;4.70;;;;;;;;;;4920177;29;20038;-91
2023/05/10 05:10:19;;;;;;;7.35;6.18;;;;;;;;;;4920299;29;20034;-91
2023/05/10 05:12:46;;;;;;;8.55;4.32;;;;;;;;;;4920511;29;20035;-92
2023/05/10 05:15:13;;;;;;;6.25;4.93;;;;;;;;;;4928186;29;20035;-91
2023/05/10 05:17:39;;;;;;;8.70;4.90;;;;;;;;;;4920161;29;20079;-91
2023/05/10 05:20:05;;;;;;;7.97;5.15;;;;;;;;;;4920057;29;20045;-90
2023/05/10 05:22:31;;;;;;;8.68;4.82;;;;;;;;;;4920444;29;20055;-92
2023/05/10 05:24:58;;;;;;;8.52;4.13;;;;;;;;;;4925813;29;20035;-91
2023/05/10 05:27:26;;;;;;;6.65;4.18;;;;;;;;;;4939983;29;20082;-90
2023/05/10 05:29:55;;;;;;;5.25;3.83;;;;;;;;;;4943065;29;20035;-94
2023/05/10 05:32:27;;;;;;;7.18;3.70;;;;;;;;;;4938815;29;20031;-89
2023/05/10 05:34:53;;;;;;;6.50;4.10;;;;;;;;;;4938979;29;20023;-91
2023/05/10 05:37:26;;;;;;;8.35;3.92;;;;;;;;;;4939810;29;20034;-93
2023/05/10 05:39:54;;;;;;;4.65;3.95;;;;;;;;;;4956475;29;20035;-90
2023/05/10 05:42:20;;;;;;;4.03;3.55;;;;;;;;;;4939045;29;20027;-91
2023/05/10 05:44:48;;;;;;;8.73;3.55;;;;;;;;;;4939065;29;20031;-90
2023/05/10 05:47:14;;;;;;;5.40;3.90;;;;;;;;;;4938592;29;20114;-91
2023/05/10 05:49:40;;;;;;;4.55;3.60;;;;;;;;;;4938888;29;20023;-89
2023/05/10 05:55:02;;;;;;;;;;;;;;;;;;;;;
2023/05/10 06:00:22;;;;;;;7.43;4.15;;;;;;;;;;5263051;23;20113;-94
2023/05/10 06:02:57;;;;;;;4.85;3.78;;;;;;;;;;5215077;23;20393;-93
2023/05/10 06:05:23;;;;;;;5.57;3.88;;;;;;;;;;4941271;29;20053;-92
2023/05/10 06:07:52;;;;;;;6.75;4.05;;;;;;;;;;4946387;28;20016;-93
2023/05/10 06:10:20;;;;;;;6.45;4.45;;;;;;;;;;4942080;29;20023;-91
2023/05/10 06:12:46;;;;;;;5.43;4.60;;;;;;;;;;4942643;29;20032;-93
2023/05/10 06:15:12;;;;;;;6.35;4.10;;;;;;;;;;4941398;29;20023;-93
2023/05/10 06:17:38;;;;;;;6.10;4.32;;;;;;;;;;4945332;28;20086;-91
2023/05/10 06:20:05;;;;;;;6.78;4.18;;;;;;;;;;4961354;28;20038;-91
2023/05/10 06:22:31;;;;;;;8.13;4.45;;;;;;;;;;4968004;28;20058;-90
2023/05/10 06:25:14;;;;;;;5.55;4.60;;;;;;;;;;4942542;29;20094;-95
2023/05/10 06:27:40;;;;;;;6.38;4.50;;;;;;;;;;4941188;29;20030;-91
2023/05/10 06:30:08;;;;;;;5.50;4.20;;;;;;;;;;4957337;28;20035;-92
2023/05/10 06:32:34;;;;;;;5.43;4.47;;;;;;;;;;4961596;28;20107;-92
2023/05/10 06:35:03;;;;;;;7.43;4.43;;;;;;;;;;4968395;28;20110;-93
2023/05/10 06:37:30;;;;;;;9.30;4.97;;;;;;;;;;5132117;23;20057;-93
2023/05/10 06:42:56;;;;;;;5.47;4.45;;;;;;;;;;4974682;28;20043;-94
2023/05/10 06:45:22;;;;;;;5.50;4.60;;;;;;;;;;4941782;29;20057;-91
2023/05/10 06:47:48;;;;;;;6.13;4.50;;;;;;;;;;4924458;29;20030;-91
2023/05/10 06:50:15;;;;;;;5.25;4.18;;;;;;;;;;4922590;29;20035;-91
2023/05/10 06:52:41;;;;;;;7.28;4.47;;;;;;;;;;4931290;29;20081;-91
2023/05/10 06:55:08;;;;;;;9.93;4.85;;;;;;;;;;4941969;29;20023;-89
2023/05/10 06:57:34;;;;;;;5.60;4.65;;;;;;;;;;4941150;29;20444;-93
2023/05/10 07:00:01;;;;;;;8.25;4.80;;;;;;;;;;4941062;29;20480;-92
2023/05/10 07:02:27;;;;;;;8.10;4.90;;;;;;;;;;4941441;29;20108;-93
2023/05/10 07:04:53;;;;;;;7.07;5.10;;;;;;;;;;4941426;29;20059;-95
2023/05/10 07:07:20;;;;;;;9.73;5.35;;;;;;;;;;4943589;28;20031;-92
2023/05/10 07:09:46;;;;;;;8.57;4.97;;;;;;;;;;4961259;28;20118;-95
2023/05/10 07:12:13;;;;;;;5.70;4.68;;;;;;;;;;4952915;28;20027;-96
2023/05/10 07:14:39;;;;;;;5.82;4.40;;;;;;;;;;4960169;29;20035;-92
2023/05/10 07:17:06;;;;;;;6.70;4.75;;;;;;;;;;4941667;29;20086;-88
2023/05/10 07:19:32;;;;;;;6.18;5.30;;;;;;;;;;4942421;29;20097;-90
2023/05/10 07:21:58;;;;;;;7.65;4.75;;;;;;;;;;4940961;29;20034;-88
2023/05/10 07:24:25;;;;;;;5.50;4.50;;;;;;;;;;4941787;29;20078;-87
2023/05/10 07:26:51;;;;;;;7.15;4.57;;;;;;;;;;4940034;29;20389;-91
2023/05/10 07:29:17;;;;;;;6.90;4.47;;;;;;;;;;4948768;29;20031;-88
2023/05/10 07:31:43;;;;;;;4.90;4.35;;;;;;;;;;4951255;28;20121;-87
2023/05/10 07:34:09;;;;;;;10.50;4.90;;;;;;;;;;4951499;28;20090;-88
2023/05/10 07:36:36;;;;;;;7.43;4.72;;;;;;;;;;4963778;28;20119;-90
2023/05/10 07:39:02;;;;;;;5.20;4.15;;;;;;;;;;4944017;28;20047;-88
2023/05/10 07:41:28;;;;;;;7.07;4.55;;;;;;;;;;4968904;28;20031;-92
2023/05/10 07:44:04;;;;;;;7.88;4.53;;;;;;;;;;4940495;28;20027;-91
2023/05/10 07:46:35;;;;;;;7.30;5.20;;;;;;;;;;4976245;28;20030;-86
2023/05/10 07:49:01;;;;;;;5.82;5.10;;;;;;;;;;4971319;28;20042;-87
2023/05/10 07:51:28;;;;;;;7.05;5.53;;;;;;;;;;4956192;29;20449;-90
2023/05/10 07:53:54;;;;;;;7.07;4.70;;;;;;;;;;4940331;29;20036;-88
2023/05/10 07:56:22;;;;;;;6.60;4.38;;;;;;;;;;4927921;29;20062;-90
2023/05/10 07:58:48;;;;;;;6.35;4.38;;;;;;;;;;4938294;29;20476;-89
2023/05/10 08:01:14;;;;;;;6.22;4.65;;;;;;;;;;4941404;29;20086;-89
2023/05/10 08:36:05;;;;;;;7.45;3.80;;;;;;;;;;5385171;23;20059;-95
2023/05/10 08:38:43;;;;;;;4.45;3.30;;;;;;;;;;4947038;29;20039;-94
2023/05/10 08:41:10;;;;;;;9.32;3.80;;;;;;;;;;4939002;28;20094;-94
2023/05/10 08:43:46;;;;;;;7.32;4.10;;;;;;;;;;4966764;28;20117;-95
2023/05/10 08:46:22;;;;;;;5.78;3.45;;;;;;;;;;4954364;29;20500;-94
2023/05/10 08:48:51;;;;;;;7.25;3.35;;;;;;;;;;4942500;28;20039;-95
2023/05/10 08:51:23;;;;;;;6.68;3.75;;;;;;;;;;4945408;29;20504;-94
2023/05/10 08:57:20;;;;;;;8.85;3.80;;;;;;;;;;4946105;29;20046;-95
2023/05/10 08:59:46;;;;;;;6.57;3.40;;;;;;;;;;4950025;28;20050;-95
2023/05/10 09:02:14;;;;;;;8.73;3.40;;;;;;;;;;4973352;28;20111;-95
2023/05/10 09:04:41;;;;;;;8.15;3.95;;;;;;;;;;4975578;28;20043;-95
2023/05/10 09:07:27;;;;;;;7.68;5.00;;;;;;;;;;4937002;29;20035;-92
2023/05/10 09:09:57;;;;;;;8.98;4.15;;;;;;;;;;4929484;29;20034;-94
2023/05/10 09:12:27;;;;;;;5.15;4.00;;;;;;;;;;4930158;29;20086;-95
2023/05/10 09:21:45;;;;;;;6.53;4.50;;;;;;;;;;4933552;29;20035;-96
2023/05/10 09:48:22;;;;;;;7.03;3.70;;;;;;;;;;5352215;23;20052;-94
2023/05/10 10:21:56;;;;;;;5.55;3.05;;;;;;;;;;3795327;23;20034;31
2023/05/10 10:24:22;;;;;;;5.30;2.97;;;;;;;;;;4890058;29;20079;-95
2023/05/10 10:27:04;;;;;;;5.22;3.35;;;;;;;;;;4905434;29;20088;-93
2023/05/10 10:29:32;;;;;;;6.13;2.65;;;;;;;;;;4911297;29;20033;-93
2023/05/10 10:32:17;;;;;;;6.03;2.70;;;;;;;;;;4907798;29;20033;-95
2023/05/10 10:34:50;;;;;;;4.60;2.58;;;;;;;;;;4904358;29;20037;-96
2023/05/10 10:46:20;;;;;;;3.22;2.50;;;;;;;;;;5245807;23;20095;-93
2023/05/10 10:49:05;;;;;;;3.63;2.45;;;;;;;;;;4932690;29;20040;-94
2023/05/10 11:01:20;;;;;;;4.88;2.30;;;;;;;;;;4964943;28;20054;-96
2023/05/10 11:23:12;;;;;;;4.45;2.28;;;;;;;;;;4950586;29;20059;-94
2023/05/10 11:56:33;;;;;;;3.85;2.17;;;;;;;;;;4857298;29;20073;-95
2023/05/10 12:24:04;;;;;;;;;;;;;;;;;;;;;
2023/05/10 12:26:44;;;;;;;6.03;2.20;;;;;;;;;;4952650;29;20035;-94
2023/05/10 12:29:44;;;;;;;6.32;2.10;;;;;;;;;;4957668;29;20015;-94
2023/05/10 12:35:35;;;;;;;;;;;;;;;;;;;;;
2023/05/10 12:41:30;;;;;;;7.30;2.55;;;;;;;;;;4971652;29;20046;-95
2023/05/10 12:43:56;;;;;;;4.40;2.05;;;;;;;;;;4942902;29;20039;-93
2023/05/10 12:46:27;;;;;;;3.35;2.05;;;;;;;;;;4960627;28;20038;-93
2023/05/10 12:48:54;;;;;;;4.30;1.73;;;;;;;;;;4958790;29;20058;-94
2023/05/10 12:55:03;;;;;;;3.65;1.95;;;;;;;;;;4971957;28;20045;-89
2023/05/10 12:57:32;;;;;;;5.88;2.00;;;;;;;;;;4977566;28;20039;-90
2023/05/10 12:59:58;;;;;;;7.20;1.98;;;;;;;;;;4958467;28;20531;-90
2023/05/10 13:02:24;;;;;;;3.53;1.90;;;;;;;;;;4944666;28;20027;-93
2023/05/10 13:04:51;;;;;;;8.20;2.10;;;;;;;;;;4959947;28;20039;-93
2023/05/10 13:07:17;;;;;;;5.78;2.10;;;;;;;;;;4961692;28;20447;-93
2023/05/10 13:10:01;;;;;;;4.93;2.25;;;;;;;;;;4963790;28;20046;-96
2023/05/10 13:12:53;;;;;;;6.20;2.00;;;;;;;;;;4963137;28;20023;-95
2023/05/10 13:18:50;;;;;;;2.78;1.50;;;;;;;;;;4888062;29;20052;-96
2023/05/10 13:21:18;;;;;;;4.90;1.80;;;;;;;;;;4968728;28;20031;-93
2023/05/10 13:26:26;;;;;;;2.85;1.60;;;;;;;;;;5843347;23;20050;-96
2023/05/10 13:29:12;;;;;;;7.95;1.70;;;;;;;;;;4947360;29;20067;-93
2023/05/10 13:43:15;;;;;;;3.72;1.63;;;;;;;;;;6015051;23;20027;31
2023/05/10 13:46:24;;;;;;;6.28;1.63;;;;;;;;;;4905642;29;20088;-92
2023/05/10 13:48:57;;;;;;;5.30;1.75;;;;;;;;;;4923493;29;20040;-94
2023/05/10 13:51:24;;;;;;;6.00;1.65;;;;;;;;;;4928462;29;20039;-94
2023/05/10 13:53:50;;;;;;;3.08;1.90;;;;;;;;;;4928123;29;20051;-95
2023/05/10 13:56:31;;;;;;;5.90;1.52;;;;;;;;;;4927879;29;20480;-92
2023/05/10 13:59:26;;;;;;;5.60;1.88;;;;;;;;;;4919200;29;20139;-91
2023/05/10 14:02:04;;;;;;;4.82;1.42;;;;;;;;;;4909539;29;20020;-94
2023/05/10 14:04:56;;;;;;;3.70;1.45;;;;;;;;;;4908186;29;20088;-94
2023/05/10 14:17:10;;;;;;;2.37;1.50;;;;;;;;;;4768173;30;20090;-94
2023/05/10 14:19:42;;;;;;;4.25;1.50;;;;;;;;;;4776576;30;20048;-90
2023/05/10 14:22:32;;;;;;;4.35;1.60;;;;;;;;;;4776116;30;20043;-93
2023/05/10 14:25:16;;;;;;;2.55;1.48;;;;;;;;;;4835453;29;20053;-94
2023/05/10 14:37:15;;;;;;;4.07;1.42;;;;;;;;;;4851067;29;20086;-90
2023/05/10 14:39:54;;;;;;;;;;;;;;;;;;;;;
2023/05/10 14:42:44;;;;;;;3.30;2.00;;;;;;;;;;4860469;29;20116;-95
2023/05/10 14:45:19;;;;;;;5.32;1.80;;;;;;;;;;4910723;29;20072;-95
2023/05/10 14:48:12;;;;;;;4.25;1.67;;;;;;;;;;4921835;29;20413;-95
2023/05/10 14:51:08;;;;;;;3.72;1.65;;;;;;;;;;4943429;29;20035;-94
2023/05/10 14:54:07;;;;;;;5.25;2.35;;;;;;;;;;4913436;29;20048;-95
2023/05/10 14:56:38;;;;;;;4.15;1.73;;;;;;;;;;4947479;29;20035;-95
2023/05/10 15:02:44;;;;;;;5.60;1.73;;;;;;;;;;4875210;29;20072;-96
2023/05/10 15:05:55;;;;;;;4.38;1.70;;;;;;;;;;4875048;29;20053;-96
2023/05/10 15:09:20;;;;;;;5.70;1.75;;;;;;;;;;4801263;30;20046;-96
2023/05/10 15:12:03;;;;;;;;;;;;;;;;;;4814948;29;20556;-94
2023/05/10 15:14:30;;;;;;;3.92;2.30;;;;;;;;;;4816977;29;19909;-94
2023/05/10 15:17:07;;;;;;;4.07;1.83;;;;;;;;;;4817866;29;20537;-94
2023/05/10 15:22:38;;;;;;;4.50;1.80;;;;;;;;;;4931429;29;20038;-94
2023/05/10 15:31:40;;;;;;;4.93;1.90;;;;;;;;;;4814855;29;20037;-92
2023/05/10 15:37:11;;;;;;;3.20;2.20;;;;;;;;;;5050640;23;20058;-96
2023/05/10 15:39:46;;;;;;;6.15;2.40;;;;;;;;;;4933857;29;20063;-96
2023/05/10 15:44:50;;;;;;;3.90;1.95;;;;;;;;;;4962886;29;20031;-93
2023/05/10 15:47:24;;;;;;;5.22;2.10;;;;;;;;;;4959709;29;20036;-90
2023/05/10 16:16:09;;;;;;;;;;;;;;;;;;;;;
2023/05/10 16:28:04;;;;;;;5.85;2.10;;;;;;;;;;4915022;29;20046;-96
2023/05/10 16:32:43;;;;;;;3.55;2.10;;;;;;;;;;5229907;23;20273;-93
2023/05/10 16:35:09;;;;;;;4.55;2.35;;;;;;;;;;4947077;29;20011;-92
2023/05/10 16:37:47;;;;;;;4.05;2.28;;;;;;;;;;4958785;28;20038;-93
2023/05/10 16:43:07;;;;;;;6.10;4.50;;;;;;;;;;5267661;23;20035;-94
2023/05/10 16:45:56;;;;;;;5.35;3.50;;;;;;;;;;5041459;23;20059;-93
2023/05/10 16:48:22;;;;;;;3.22;2.10;;;;;;;;;;5142103;23;20037;-95
2023/05/10 17:06:18;;;;;;;4.30;2.10;;;;;;;;;;4957143;28;20035;-96
2023/05/10 17:08:45;;;;;;;5.65;2.40;;;;;;;;;;4940918;29;20032;-94
2023/05/10 17:11:29;;;;;;;2.70;2.20;;;;;;;;;;5108420;23;20062;-95
2023/05/10 17:13:58;;;;;;;4.32;2.17;;;;;;;;;;4962869;28;20035;-93
2023/05/10 17:16:29;;;;;;;4.28;1.70;;;;;;;;;;4967233;28;20024;-94
2023/05/10 17:18:55;;;;;;;3.78;2.22;;;;;;;;;;4993853;23;20077;-94
2023/05/10 17:21:28;;;;;;;6.65;1.90;;;;;;;;;;4982701;23;20051;-93
2023/05/10 17:23:59;;;;;;;8.40;2.83;;;;;;;;;;4947711;29;20023;-96
2023/05/10 17:44:56;;;;;;;5.32;3.50;;;;;;;;;;5026612;23;20035;-95
2023/05/10 17:47:32;;;;;;;6.30;3.25;;;;;;;;;;4930498;29;20079;-96
2023/05/10 17:53:22;;;;;;;5.82;2.58;;;;;;;;;;4864335;29;20056;-96
2023/05/10 17:59:09;;;;;;;4.18;2.15;;;;;;;;;;4864678;29;20080;-95
2023/05/10 18:07:32;;;;;;;4.53;2.17;;;;;;;;;;4863044;29;20031;-93
2023/05/10 18:15:21;;;;;;;5.55;3.03;;;;;;;;;;5563956;23;20146;-91
2023/05/10 18:17:49;;;;;;;5.55;3.03;;;;;;;;;;4924272;29;20083;-95
2023/05/10 18:23:37;;;;;;;4.00;2.60;;;;;;;;;;4956715;29;20096;-95
2023/05/10 18:26:21;;;;;;;4.55;2.83;;;;;;;;;;4924104;29;20032;-96
2023/05/10 18:31:23;;;;;;;6.82;3.33;;;;;;;;;;4987673;23;20051;-93
2023/05/10 18:33:52;;;;;;;9.77;3.58;;;;;;;;;;4942684;29;20023;-91
2023/05/10 18:36:20;;;;;;;6.40;3.30;;;;;;;;;;4958500;29;20051;-92
2023/05/10 18:38:46;;;;;;;7.78;3.28;;;;;;;;;;4943213;29;20031;-92
2023/05/10 18:41:13;;;;;;;5.10;2.83;;;;;;;;;;4941448;29;20484;-92
2023/05/10 18:43:41;;;;;;;4.95;2.90;;;;;;;;;;4941568;29;20073;-92
2023/05/10 18:46:07;;;;;;;5.38;2.90;;;;;;;;;;4940915;29;20027;-89
2023/05/10 18:48:33;;;;;;;4.45;3.10;;;;;;;;;;4942173;29;20087;-89
2023/05/10 18:51:00;;;;;;;5.28;3.25;;;;;;;;;;4958780;29;20027;-90
2023/05/10 18:53:26;;;;;;;4.30;3.38;;;;;;;;;;4939889;29;20031;-91
2023/05/10 18:55:57;;;;;;;7.35;4.03;;;;;;;;;;4939004;29;20473;-90
2023/05/10 18:58:23;;;;;;;7.53;4.40;;;;;;;;;;4935085;29;20047;-92
2023/05/10 19:00:50;;;;;;;9.38;4.70;;;;;;;;;;4922380;29;20044;-91
2023/05/10 19:03:16;;;;;;;13.27;5.38;;;;;;;;;;4922537;29;20031;-90
2023/05/10 19:05:43;;;;;;;10.45;4.38;;;;;;;;;;4939344;29;20434;-90
2023/05/10 19:08:09;;;;;;;8.70;4.22;;;;;;;;;;4921951;29;20087;-90
2023/05/10 19:10:35;;;;;;;5.63;3.67;;;;;;;;;;4921287;29;20418;-90
2023/05/10 19:13:01;;;;;;;6.43;3.60;;;;;;;;;;4921452;29;20075;-90
2023/05/10 19:15:27;;;;;;;9.75;3.53;;;;;;;;;;4921841;29;20024;-90
2023/05/10 19:17:53;;;;;;;6.15;3.65;;;;;;;;;;4921395;29;20484;-90
2023/05/10 19:20:20;;;;;;;6.82;4.03;;;;;;;;;;4921577;29;20035;-91
2023/05/10 19:22:46;;;;;;;6.45;3.40;;;;;;;;;;4920678;29;20130;-90
2023/05/10 19:25:12;;;;;;;6.13;3.67;;;;;;;;;;4931121;29;20043;-90
2023/05/10 19:27:38;;;;;;;8.02;3.78;;;;;;;;;;4925172;29;20040;-89
2023/05/10 19:30:05;;;;;;;7.25;4.13;;;;;;;;;;4940306;29;20074;-91
2023/05/10 19:32:31;;;;;;;6.50;4.10;;;;;;;;;;4940171;29;20118;-90
2023/05/10 19:34:57;;;;;;;7.03;4.68;;;;;;;;;;4940977;29;20126;-93
2023/05/10 19:37:23;;;;;;;5.65;3.78;;;;;;;;;;4940631;29;20027;-92
2023/05/10 19:39:50;;;;;;;4.63;3.50;;;;;;;;;;4940165;29;20098;-90
2023/05/10 19:42:16;;;;;;;6.18;3.95;;;;;;;;;;4941052;29;20069;-91
2023/05/10 19:44:42;;;;;;;6.45;4.03;;;;;;;;;;4940485;29;20480;-90
2023/05/10 19:47:10;;;;;;;5.25;3.60;;;;;;;;;;4940061;29;20023;-90
2023/05/10 19:49:36;;;;;;;5.65;3.60;;;;;;;;;;4940925;29;20031;-92
2023/05/10 19:52:03;;;;;;;7.97;4.30;;;;;;;;;;4946205;29;20043;-94
2023/05/10 19:54:32;;;;;;;6.43;4.03;;;;;;;;;;4940714;29;20031;-95
2023/05/10 19:56:58;;;;;;;5.25;4.07;;;;;;;;;;4939515;29;20520;-92
2023/05/10 19:59:24;;;;;;;6.03;4.05;;;;;;;;;;4940216;29;20047;-93
2023/05/10 20:01:51;;;;;;;5.25;3.92;;;;;;;;;;4940126;29;20110;-94
2023/05/10 20:04:17;;;;;;;7.18;3.70;;;;;;;;;;4940379;29;20031;-92
2023/05/10 20:06:43;;;;;;;5.68;3.63;;;;;;;;;;4940150;29;20024;-92
2023/05/10 20:09:09;;;;;;;8.18;3.50;;;;;;;;;;4939920;29;20497;-93
2023/05/10 20:11:35;;;;;;;5.68;3.60;;;;;;;;;;4939950;29;20020;-92
2023/05/10 20:14:02;;;;;;;6.18;4.13;;;;;;;;;;4940079;29;20042;-91
2023/05/10 20:16:28;;;;;;;6.60;3.50;;;;;;;;;;4939955;29;20023;-92
2023/05/10 20:19:03;;;;;;;6.35;4.68;;;;;;;;;;4939577;29;20031;-95
2023/05/10 20:21:33;;;;;;;8.10;5.32;;;;;;;;;;4943056;29;20031;-92
2023/05/10 20:23:59;;;;;;;7.35;5.95;;;;;;;;;;4930207;29;20122;-91
2023/05/10 20:26:25;;;;;;;9.35;6.00;;;;;;;;;;4931254;29;20031;-93
2023/05/10 20:28:51;;;;;;;9.55;6.07;;;;;;;;;;4927896;29;20058;-91
2023/05/10 20:31:17;;;;;;;8.00;5.40;;;;;;;;;;4924717;29;20131;-90
2023/05/10 20:33:43;;;;;;;9.65;6.15;;;;;;;;;;4931543;29;20028;-92
2023/05/10 20:36:09;;;;;;;7.13;5.22;;;;;;;;;;4924108;29;20384;-89
2023/05/10 20:38:36;;;;;;;9.38;5.72;;;;;;;;;;4926172;29;20083;-92
2023/05/10 20:41:02;;;;;;;7.60;5.68;;;;;;;;;;4928272;29;20032;-92
2023/05/10 20:43:28;;;;;;;9.40;5.95;;;;;;;;;;4930503;29;20058;-92
2023/05/10 20:45:54;;;;;;;8.77;5.32;;;;;;;;;;4921966;29;20028;-93
2023/05/10 20:48:21;;;;;;;8.23;5.60;;;;;;;;;;4922006;29;20032;-92
2023/05/10 20:51:06;;;;;;;9.90;5.78;;;;;;;;;;4934447;29;20035;-93
2023/05/10 20:53:32;;;;;;;9.95;6.30;;;;;;;;;;4927664;29;20022;-91
2023/05/10 20:55:58;;;;;;;10.10;6.20;;;;;;;;;;4932552;29;20035;-91
2023/05/10 20:58:25;;;;;;;11.60;6.22;;;;;;;;;;4931901;29;20482;-92
2023/05/10 21:00:53;;;;;;;7.68;5.70;;;;;;;;;;4954038;29;20039;-92
2023/05/10 21:03:20;;;;;;;11.15;6.22;;;;;;;;;;4934191;29;20385;-92
2023/05/10 21:05:46;;;;;;;11.25;6.60;;;;;;;;;;4933789;29;20114;-92